createdAt,value
2023-05-17T00:00:22.599Z,57.79
2023-05-17T00:02:50.762Z,57.12
2023-05-17T00:05:18.738Z,57.26
2023-05-17T00:07:47.379Z,57.48
2023-05-17T00:10:16.968Z,55.83
2023-05-17T00:12:44.982Z,57.50
2023-05-17T00:15:14.662Z,56.22
2023-05-17T00:17:42.727Z,55.77
2023-05-17T00:20:11.532Z,56.69
2023-05-17T00:22:40.910Z,54.66
2023-05-17T00:25:09.304Z,56.92
2023-05-17T00:27:38.662Z,56.19
2023-05-17T00:30:08.374Z,56.17
2023-05-17T00:32:39.093Z,55.05
2023-05-17T00:35:07.908Z,55.93
2023-05-17T00:37:35.995Z,54.08
2023-05-17T00:40:05.396Z,56.61
2023-05-17T00:42:33.512Z,56.73
2023-05-17T00:45:02.964Z,55.95
2023-05-17T00:47:33.936Z,57.02
2023-05-17T00:50:01.970Z,56.30
2023-05-17T00:52:29.979Z,56.11
2023-05-17T00:54:57.986Z,55.67
2023-05-17T00:57:25.960Z,54.11
2023-05-17T00:59:55.504Z,56.16
2023-05-17T01:02:25.002Z,57.20
2023-05-17T01:04:53.029Z,56.88
2023-05-17T01:07:21.064Z,57.55
2023-05-17T01:09:49.030Z,57.55
2023-05-17T01:12:22.258Z,55.88
2023-05-17T01:14:54.927Z,56.86
2023-05-17T01:17:26.485Z,58.02
2023-05-17T01:19:59.969Z,59.17
2023-05-17T01:22:33.148Z,56.74
2023-05-17T01:25:06.131Z,57.36
2023-05-17T01:27:35.499Z,56.41
2023-05-17T01:30:03.493Z,57.33
2023-05-17T01:32:33.295Z,57.97
2023-05-17T01:35:01.492Z,56.53
2023-05-17T01:37:29.446Z,55.23
2023-05-17T01:39:57.445Z,56.04
2023-05-17T01:42:28.568Z,58.67
2023-05-17T01:45:01.219Z,57.48
2023-05-17T01:47:32.162Z,57.98
2023-05-17T01:50:00.486Z,58.93
2023-05-17T01:52:31.902Z,58.66
2023-05-17T01:55:04.954Z,59.02
2023-05-17T01:57:34.844Z,58.71
2023-05-17T02:00:08.118Z,57.18
2023-05-17T02:02:36.092Z,59.21
2023-05-17T02:05:04.144Z,57.80
2023-05-17T02:07:32.177Z,57.80
2023-05-17T02:10:00.232Z,57.90
2023-05-17T02:12:28.231Z,58.49
2023-05-17T02:14:56.211Z,58.70
2023-05-17T02:17:25.649Z,58.51
2023-05-17T02:19:53.658Z,59.92
2023-05-17T02:22:21.685Z,59.78
2023-05-17T02:24:49.687Z,59.11
2023-05-17T02:27:17.666Z,58.81
2023-05-17T02:29:45.623Z,58.74
2023-05-17T02:32:13.724Z,57.98
2023-05-17T02:34:43.124Z,59.43
2023-05-17T02:37:11.119Z,58.61
2023-05-17T02:39:39.124Z,58.86
2023-05-17T02:42:07.784Z,59.32
2023-05-17T02:44:35.745Z,58.69
2023-05-17T02:47:03.733Z,59.51
2023-05-17T02:49:31.816Z,59.31
2023-05-17T02:52:02.407Z,59.36
2023-05-17T02:54:31.012Z,58.14
2023-05-17T02:56:59.040Z,56.13
2023-05-17T02:59:26.982Z,56.48
2023-05-17T03:01:54.973Z,58.58
2023-05-17T03:04:22.968Z,56.22
2023-05-17T03:06:51.205Z,56.37
2023-05-17T03:09:20.885Z,58.28
2023-05-17T03:11:48.898Z,57.68
2023-05-17T03:14:16.876Z,57.14
2023-05-17T03:16:44.874Z,57.92
2023-05-17T03:19:13.030Z,58.31
2023-05-17T03:21:41.363Z,58.14
2023-05-17T03:24:09.503Z,57.62
2023-05-17T03:26:38.930Z,57.93
2023-05-17T03:29:07.010Z,57.62
2023-05-17T03:31:34.967Z,58.52
2023-05-17T03:34:03.029Z,57.48
2023-05-17T03:36:31.414Z,57.52
2023-05-17T03:38:59.401Z,57.54
2023-05-17T03:41:27.514Z,58.03
2023-05-17T03:43:56.942Z,57.08
2023-05-17T03:46:24.984Z,58.67
2023-05-17T03:48:53.014Z,58.11
2023-05-17T03:51:21.043Z,57.84
2023-05-17T03:53:49.048Z,59.28
2023-05-17T03:56:18.237Z,54.93
2023-05-17T03:58:46.256Z,56.50
2023-05-17T04:01:16.067Z,56.17
2023-05-17T04:03:43.998Z,55.70
2023-05-17T04:06:12.043Z,55.23
2023-05-17T04:08:40.110Z,55.36
2023-05-17T04:11:13.190Z,56.20
2023-05-17T04:13:41.277Z,56.61
2023-05-17T04:16:09.484Z,55.85
2023-05-17T04:18:39.311Z,56.61
2023-05-17T04:21:07.701Z,54.83
2023-05-17T04:23:35.687Z,54.50
2023-05-17T04:26:04.269Z,54.93
2023-05-17T04:28:32.497Z,54.56
2023-05-17T04:31:00.428Z,54.60
2023-05-17T04:33:28.701Z,54.57
2023-05-17T04:35:58.164Z,52.98
2023-05-17T04:38:26.174Z,54.95
2023-05-17T04:40:54.386Z,53.70
2023-05-17T04:43:23.084Z,55.47
2023-05-17T04:45:51.042Z,54.36
2023-05-17T04:48:20.787Z,55.63
2023-05-17T04:50:49.296Z,53.96
2023-05-17T04:53:18.704Z,54.32
2023-05-17T04:55:49.676Z,53.89
2023-05-17T04:58:18.539Z,54.38
2023-05-17T05:00:46.606Z,53.24
2023-05-17T05:03:15.029Z,52.86
2023-05-17T05:05:43.125Z,54.26
2023-05-17T05:08:11.295Z,54.92
2023-05-17T05:10:40.657Z,53.21
2023-05-17T05:13:08.634Z,53.17
2023-05-17T05:15:36.630Z,53.49
2023-05-17T05:18:04.867Z,52.34
2023-05-17T05:20:33.064Z,51.21
2023-05-17T05:23:01.078Z,50.33
2023-05-17T05:25:29.318Z,51.44
2023-05-17T05:27:58.924Z,52.19
2023-05-17T05:30:27.005Z,53.53
2023-05-17T05:32:55.026Z,54.26
2023-05-17T05:35:29.322Z,53.07
2023-05-17T05:37:58.411Z,54.54
2023-05-17T05:40:26.465Z,52.15
2023-05-17T05:42:54.651Z,53.57
2023-05-17T05:45:24.123Z,54.04
2023-05-17T05:47:52.277Z,53.02
2023-05-17T05:50:20.758Z,54.59
2023-05-17T05:52:48.745Z,54.81
2023-05-17T05:55:16.716Z,55.00
2023-05-17T05:57:44.685Z,54.70
2023-05-17T06:00:14.080Z,54.33
2023-05-17T06:02:43.541Z,54.43
2023-05-17T06:05:11.927Z,55.91
2023-05-17T06:07:40.039Z,55.13
2023-05-17T06:10:09.125Z,55.90
2023-05-17T06:12:37.149Z,55.48
2023-05-17T06:15:05.741Z,55.77
2023-05-17T06:17:33.940Z,56.20
2023-05-17T06:20:03.555Z,55.31
2023-05-17T06:22:31.608Z,55.25
2023-05-17T06:24:59.709Z,55.26
2023-05-17T06:27:27.820Z,55.21
2023-05-17T06:29:55.841Z,56.38
2023-05-17T06:32:24.081Z,55.00
2023-05-17T06:34:52.080Z,53.43
2023-05-17T06:37:21.450Z,54.72
2023-05-17T06:39:55.929Z,54.00
2023-05-17T06:42:31.018Z,54.97
2023-05-17T06:44:58.998Z,55.81
2023-05-17T06:47:27.100Z,55.41
2023-05-17T06:49:55.130Z,55.33
2023-05-17T06:52:24.474Z,55.32
2023-05-17T06:54:53.022Z,55.38
2023-05-17T06:57:21.099Z,55.55
2023-05-17T06:59:52.079Z,54.78
2023-05-17T07:02:20.056Z,54.32
2023-05-17T07:04:48.046Z,55.08
2023-05-17T07:07:16.140Z,53.60
2023-05-17T07:09:48.149Z,54.37
2023-05-17T07:12:16.693Z,54.52
2023-05-17T07:14:44.654Z,54.44
2023-05-17T07:17:12.684Z,54.04
2023-05-17T07:19:40.872Z,54.19
2023-05-17T07:22:08.947Z,54.42
2023-05-17T07:24:39.212Z,53.99
2023-05-17T07:27:08.777Z,54.15
2023-05-17T07:29:37.020Z,54.08
2023-05-17T07:32:05.654Z,53.95
2023-05-17T07:34:33.696Z,53.85
2023-05-17T07:37:01.707Z,54.04
2023-05-17T07:39:29.660Z,54.29
2023-05-17T07:41:57.764Z,53.54
2023-05-17T07:44:27.286Z,54.22
2023-05-17T07:46:55.329Z,53.37
2023-05-17T07:49:24.644Z,53.48
2023-05-17T07:51:53.245Z,53.15
2023-05-17T07:54:24.790Z,53.49
2023-05-17T07:56:55.179Z,53.45
2023-05-17T07:59:23.142Z,53.27
2023-05-17T08:01:52.618Z,53.19
2023-05-17T08:04:20.766Z,52.15
2023-05-17T08:06:50.161Z,52.21
2023-05-17T08:09:18.319Z,50.00
2023-05-17T08:11:47.152Z,51.82
2023-05-17T08:14:15.734Z,50.86
2023-05-17T08:16:43.874Z,51.24
2023-05-17T08:19:14.216Z,51.55
2023-05-17T08:21:42.340Z,51.11
2023-05-17T08:24:10.458Z,49.47
2023-05-17T08:26:38.528Z,51.96
2023-05-17T08:29:06.579Z,51.63
2023-05-17T08:31:34.681Z,51.97
2023-05-17T08:34:03.314Z,49.54
2023-05-17T08:36:32.776Z,51.48
2023-05-17T08:39:00.828Z,49.95
2023-05-17T08:41:29.365Z,51.11
2023-05-17T08:43:59.133Z,51.25
2023-05-17T08:46:28.162Z,50.62
2023-05-17T08:49:00.038Z,50.69
2023-05-17T08:51:28.639Z,51.01
2023-05-17T08:53:58.068Z,49.72
2023-05-17T08:56:26.613Z,49.13
2023-05-17T08:58:58.207Z,50.07
2023-05-17T09:01:27.958Z,48.40
2023-05-17T09:03:56.492Z,50.12
2023-05-17T09:06:24.856Z,47.61
2023-05-17T09:08:53.041Z,47.83
2023-05-17T09:11:29.128Z,48.58
2023-05-17T09:13:59.710Z,48.55
2023-05-17T09:16:29.591Z,50.55
2023-05-17T09:18:58.060Z,49.81
2023-05-17T09:21:26.344Z,49.47
2023-05-17T09:24:05.401Z,48.85
2023-05-17T09:26:43.816Z,48.25
2023-05-17T09:29:12.217Z,48.74
2023-05-17T09:31:40.370Z,49.46
2023-05-17T09:34:08.767Z,48.19
2023-05-17T09:36:37.381Z,49.45
2023-05-17T09:39:06.550Z,47.75
2023-05-17T09:41:35.033Z,46.74
2023-05-17T09:44:05.072Z,47.95
2023-05-17T09:46:34.478Z,48.81
2023-05-17T09:49:03.182Z,49.28
2023-05-17T09:51:35.018Z,50.12
2023-05-17T09:54:03.102Z,48.08
2023-05-17T09:56:31.382Z,49.01
2023-05-17T09:59:00.841Z,48.26
2023-05-17T10:01:30.926Z,48.78
2023-05-17T10:04:00.747Z,46.58
2023-05-17T10:09:01.595Z,49.93
2023-05-17T10:11:34.140Z,47.33
2023-05-17T10:14:09.230Z,49.10
2023-05-17T10:16:39.092Z,48.55
2023-05-17T10:19:07.272Z,47.58
2023-05-17T10:21:35.760Z,47.46
2023-05-17T10:24:04.231Z,45.68
2023-05-17T10:26:32.118Z,47.48
2023-05-17T10:29:02.948Z,47.21
2023-05-17T10:31:31.191Z,45.42
2023-05-17T10:34:00.675Z,46.71
2023-05-17T10:36:28.720Z,45.81
2023-05-17T10:38:56.739Z,46.89
2023-05-17T10:41:26.583Z,46.29
2023-05-17T10:43:54.807Z,46.80
2023-05-17T10:46:23.201Z,46.30
2023-05-17T10:48:52.182Z,48.65
2023-05-17T10:51:25.124Z,48.38
2023-05-17T10:54:06.497Z,47.21
2023-05-17T10:56:34.751Z,48.94
2023-05-17T10:59:22.805Z,49.13
2023-05-17T11:01:55.334Z,48.52
2023-05-17T11:04:25.659Z,48.46
2023-05-17T11:07:13.441Z,47.88
2023-05-17T11:09:41.843Z,49.71
2023-05-17T11:12:10.573Z,47.66
2023-05-17T11:14:48.698Z,48.26
2023-05-17T11:17:17.941Z,47.85
2023-05-17T11:20:11.660Z,48.74
2023-05-17T11:22:44.025Z,48.15
2023-05-17T11:25:13.913Z,49.04
2023-05-17T11:27:46.026Z,48.19
2023-05-17T11:30:20.802Z,47.29
2023-05-17T11:32:50.373Z,48.42
2023-05-17T11:35:18.720Z,49.46
2023-05-17T11:37:49.412Z,47.83
2023-05-17T11:40:25.301Z,49.07
2023-05-17T11:43:11.233Z,48.58
2023-05-17T11:45:50.675Z,48.02
2023-05-17T11:48:21.913Z,47.65
2023-05-17T11:50:50.480Z,48.42
2023-05-17T11:53:19.894Z,48.42
2023-05-17T11:55:48.569Z,47.36
2023-05-17T11:58:17.193Z,48.28
2023-05-17T12:00:45.434Z,48.51
2023-05-17T12:03:20.655Z,47.17
2023-05-17T12:05:49.612Z,46.44
2023-05-17T12:08:19.763Z,49.10
2023-05-17T12:10:49.643Z,47.70
2023-05-17T12:13:19.157Z,48.77
2023-05-17T12:15:50.731Z,47.70
2023-05-17T12:27:31.505Z,48.89
2023-05-17T12:29:59.684Z,49.67
2023-05-17T12:32:27.881Z,48.36
2023-05-17T12:34:56.132Z,48.24
2023-05-17T12:37:24.161Z,48.71
2023-05-17T12:39:52.298Z,47.66
2023-05-17T12:42:20.425Z,48.20
2023-05-17T12:44:49.803Z,47.56
2023-05-17T12:47:17.850Z,48.13
2023-05-17T12:49:54.111Z,48.06
2023-05-17T12:52:22.380Z,47.95
2023-05-17T12:54:50.449Z,48.29
2023-05-17T12:57:20.256Z,48.27
2023-05-17T12:59:50.454Z,48.35
2023-05-17T13:02:18.634Z,47.83
2023-05-17T13:04:47.645Z,48.14
2023-05-17T13:07:22.429Z,47.33
2023-05-17T13:09:50.695Z,48.07
2023-05-17T13:12:22.250Z,47.51
2023-05-17T13:14:53.301Z,47.68
2023-05-17T13:17:27.033Z,47.82
2023-05-17T13:19:57.522Z,47.84
2023-05-17T13:22:26.218Z,48.59
2023-05-17T13:24:54.240Z,47.62
2023-05-17T13:27:22.203Z,47.93
2023-05-17T13:29:51.613Z,48.05
2023-05-17T13:32:19.697Z,46.62
2023-05-17T13:34:47.727Z,46.65
2023-05-17T13:37:15.857Z,45.97
2023-05-17T13:39:43.859Z,46.81
2023-05-17T13:42:12.171Z,44.75
2023-05-17T13:44:40.291Z,46.03
2023-05-17T13:47:09.759Z,46.20
2023-05-17T13:49:37.881Z,46.70
2023-05-17T13:52:08.751Z,47.85
2023-05-17T13:54:37.110Z,47.26
2023-05-17T13:57:08.378Z,47.00
2023-05-17T13:59:39.847Z,47.47
2023-05-17T14:02:10.484Z,47.29
2023-05-17T14:04:38.517Z,46.85
2023-05-17T14:07:06.601Z,47.46
2023-05-17T14:09:36.687Z,48.33
2023-05-17T14:12:05.216Z,46.86
2023-05-17T14:14:33.293Z,46.91
2023-05-17T14:17:01.936Z,47.78
2023-05-17T14:19:31.774Z,48.14
2023-05-17T14:22:00.007Z,47.89
2023-05-17T14:24:27.963Z,47.80
2023-05-17T14:26:56.348Z,48.44
2023-05-17T14:29:24.378Z,47.56
2023-05-17T14:31:52.462Z,47.33
2023-05-17T14:34:20.617Z,47.25
2023-05-17T14:36:51.045Z,47.37
2023-05-17T14:39:19.115Z,47.63
2023-05-17T14:41:47.142Z,48.32
2023-05-17T14:44:15.260Z,46.96
2023-05-17T14:46:43.316Z,46.62
2023-05-17T14:49:11.786Z,47.15
2023-05-17T14:51:39.883Z,46.74
2023-05-17T14:54:10.285Z,47.20
2023-05-17T14:56:39.691Z,47.22
2023-05-17T14:59:08.649Z,47.15
2023-05-17T15:01:37.069Z,47.60
2023-05-17T15:04:05.302Z,47.46
2023-05-17T15:06:33.515Z,47.63
2023-05-17T15:09:02.312Z,47.94
2023-05-17T15:11:31.676Z,47.45
2023-05-17T15:14:00.160Z,47.20
2023-05-17T15:16:28.212Z,46.28
2023-05-17T15:18:57.714Z,46.63
2023-05-17T15:21:26.165Z,47.29
2023-05-17T15:23:54.358Z,46.78
2023-05-17T15:26:22.902Z,47.00
2023-05-17T15:28:55.060Z,47.87
2023-05-17T15:31:24.270Z,48.59
2023-05-17T15:33:52.946Z,47.62
2023-05-17T15:36:20.958Z,48.27
2023-05-17T15:38:48.970Z,47.47
2023-05-17T15:41:17.730Z,48.50
2023-05-17T15:43:45.854Z,48.20
2023-05-17T15:46:15.257Z,47.68
2023-05-17T15:48:43.360Z,48.37
2023-05-17T15:51:11.480Z,48.15
2023-05-17T15:53:39.497Z,48.43
2023-05-17T15:56:10.078Z,47.89
2023-05-17T15:58:38.200Z,47.98
2023-05-17T16:01:06.571Z,48.33
2023-05-17T16:03:36.060Z,49.08
2023-05-17T16:06:05.482Z,48.19
2023-05-17T16:08:33.470Z,48.89
2023-05-17T16:11:02.522Z,49.10
2023-05-17T16:13:31.089Z,48.80
2023-05-17T16:15:59.799Z,48.68
2023-05-17T16:18:27.899Z,49.14
2023-05-17T16:21:01.121Z,48.79
2023-05-17T16:23:29.271Z,49.29
2023-05-17T16:25:57.289Z,49.00
2023-05-17T16:28:25.314Z,48.71
2023-05-17T16:30:54.449Z,49.09
2023-05-17T16:33:22.604Z,48.67
2023-05-17T16:35:50.781Z,47.55
2023-05-17T16:38:20.451Z,48.42
2023-05-17T16:40:48.453Z,48.58
2023-05-17T16:43:16.808Z,48.78
2023-05-17T16:45:45.480Z,49.46
2023-05-17T16:48:14.393Z,48.92
2023-05-17T16:50:42.464Z,47.75
2023-05-17T16:53:10.506Z,48.29
2023-05-17T16:55:39.870Z,47.07
2023-05-17T16:58:08.085Z,48.03
2023-05-17T17:00:36.084Z,48.16
2023-05-17T17:03:05.928Z,48.02
2023-05-17T17:05:36.612Z,49.02
2023-05-17T17:08:04.658Z,48.40
2023-05-17T17:10:32.852Z,48.91
2023-05-17T17:13:02.433Z,48.84
2023-05-17T17:15:30.478Z,49.05
2023-05-17T17:17:58.542Z,48.98
2023-05-17T17:20:26.686Z,49.46
2023-05-17T17:22:54.846Z,49.81
2023-05-17T17:25:24.807Z,49.19
2023-05-17T17:27:53.382Z,49.44
2023-05-17T17:30:22.865Z,49.92
2023-05-17T17:32:50.989Z,49.73
2023-05-17T17:35:19.081Z,49.77
2023-05-17T17:37:50.336Z,49.53
2023-05-17T17:40:18.571Z,49.89
2023-05-17T17:42:47.294Z,50.15
2023-05-17T17:45:15.332Z,49.14
2023-05-17T17:47:44.952Z,49.89
2023-05-17T17:50:13.005Z,49.88
2023-05-17T17:52:41.126Z,50.06
2023-05-17T17:55:12.974Z,50.47
2023-05-17T17:57:41.673Z,50.25
2023-05-17T18:00:11.938Z,50.32
2023-05-17T18:02:40.329Z,50.08
2023-05-17T18:05:11.059Z,49.93
2023-05-17T18:07:39.219Z,50.84
2023-05-17T18:10:08.144Z,50.49
2023-05-17T18:12:36.162Z,50.57
2023-05-17T18:15:04.164Z,50.56
2023-05-17T18:17:32.271Z,50.74
2023-05-17T18:20:00.520Z,50.49
2023-05-17T18:22:29.995Z,50.38
2023-05-17T18:24:57.998Z,50.73
2023-05-17T18:27:26.489Z,50.47
2023-05-17T18:29:54.474Z,50.35
2023-05-17T18:32:22.566Z,50.91
2023-05-17T18:34:50.671Z,50.86
2023-05-17T18:37:18.698Z,50.07
2023-05-17T18:39:48.068Z,50.73
2023-05-17T18:42:16.150Z,50.71
2023-05-17T18:44:44.158Z,50.79
2023-05-17T18:47:12.348Z,51.34
2023-05-17T18:49:42.259Z,50.76
2023-05-17T18:52:10.282Z,51.60
2023-05-17T18:54:38.283Z,51.44
2023-05-17T18:57:11.336Z,50.90
2023-05-17T18:59:39.432Z,51.25
2023-05-17T19:02:07.431Z,51.19
2023-05-17T19:04:36.625Z,50.82
2023-05-17T19:07:05.062Z,51.15
2023-05-17T19:09:34.475Z,50.99
2023-05-17T19:12:02.529Z,51.23
2023-05-17T19:14:32.189Z,50.75
2023-05-17T19:17:00.341Z,50.86
2023-05-17T19:19:28.433Z,51.27
2023-05-17T19:21:56.416Z,50.83
2023-05-17T19:24:24.432Z,51.51
2023-05-17T19:26:52.433Z,51.12
2023-05-17T19:29:20.419Z,50.82
2023-05-17T19:31:49.952Z,50.84
2023-05-17T19:34:18.077Z,51.01
2023-05-17T19:36:46.161Z,50.92
2023-05-17T19:39:14.158Z,51.48
2023-05-17T19:41:42.157Z,51.07
2023-05-17T19:44:11.538Z,50.93
2023-05-17T19:46:39.569Z,51.41
2023-05-17T19:49:09.004Z,51.17
2023-05-17T19:51:37.010Z,50.85
2023-05-17T19:54:05.286Z,51.14
2023-05-17T19:56:33.336Z,51.04
2023-05-17T19:59:01.356Z,51.16
2023-05-17T20:01:29.395Z,51.41
2023-05-17T20:03:57.510Z,51.16
2023-05-17T20:06:27.030Z,51.30
2023-05-17T20:08:55.090Z,51.50
2023-05-17T20:11:23.173Z,51.01
2023-05-17T20:13:51.251Z,51.08
2023-05-17T20:16:19.302Z,51.50
2023-05-17T20:18:47.333Z,51.68
2023-05-17T20:21:18.246Z,51.17
2023-05-17T20:23:47.718Z,51.16
2023-05-17T20:26:17.955Z,51.30
2023-05-17T20:28:46.039Z,51.32
2023-05-17T20:31:14.636Z,51.54
2023-05-17T20:33:44.331Z,51.52
2023-05-17T20:36:14.468Z,51.40
2023-05-17T20:38:43.122Z,51.55
2023-05-17T20:41:14.771Z,51.19
2023-05-17T20:43:45.227Z,51.46
2023-05-17T20:46:13.471Z,51.45
2023-05-17T20:48:43.076Z,51.57
2023-05-17T20:51:11.464Z,51.28
2023-05-17T20:53:39.577Z,51.58
2023-05-17T20:56:07.933Z,51.21
2023-05-17T20:58:37.472Z,51.50
2023-05-17T21:01:05.898Z,51.74
2023-05-17T21:03:35.048Z,51.24
2023-05-17T21:06:05.229Z,51.34
2023-05-17T21:08:33.998Z,51.10
2023-05-17T21:11:02.064Z,51.43
2023-05-17T21:13:30.151Z,51.30
2023-05-17T21:15:59.642Z,51.03
2023-05-17T21:18:27.723Z,51.20
2023-05-17T21:20:56.364Z,51.26
2023-05-17T21:23:24.411Z,51.46
2023-05-17T21:25:52.400Z,51.34
2023-05-17T21:28:20.729Z,51.50
2023-05-17T21:30:48.723Z,51.67
2023-05-17T21:33:18.104Z,51.42
2023-05-17T21:35:46.301Z,51.65
2023-05-17T21:38:14.409Z,51.54
2023-05-17T21:40:42.422Z,51.71
2023-05-17T21:43:11.296Z,51.33
2023-05-17T21:45:39.802Z,51.54
2023-05-17T21:48:07.872Z,51.35
2023-05-17T21:50:37.251Z,51.52
2023-05-17T21:53:05.228Z,51.64
2023-05-17T21:55:41.290Z,51.34
2023-05-17T21:58:21.268Z,51.44
2023-05-17T22:00:49.220Z,51.50
2023-05-17T22:03:17.338Z,51.65
2023-05-17T22:05:46.821Z,51.28
2023-05-17T22:08:14.873Z,51.27
2023-05-17T22:10:43.557Z,51.28
2023-05-17T22:13:12.605Z,51.71
2023-05-17T22:15:41.635Z,51.56
2023-05-17T22:18:12.369Z,51.03
2023-05-17T22:20:40.826Z,51.36
2023-05-17T22:23:10.239Z,51.70
2023-05-17T22:25:38.269Z,51.63
2023-05-17T22:28:06.189Z,51.64
2023-05-17T22:30:34.516Z,51.63
2023-05-17T22:33:03.134Z,51.64
2023-05-17T22:35:31.182Z,51.24
2023-05-17T22:37:59.153Z,51.41
2023-05-17T22:40:28.787Z,51.56
2023-05-17T22:42:58.158Z,51.37
2023-05-17T22:45:32.923Z,51.70
2023-05-17T22:48:03.037Z,51.44
2023-05-17T22:50:34.691Z,51.33
2023-05-17T22:53:02.645Z,51.48
2023-05-17T22:55:32.318Z,51.70
2023-05-17T22:58:00.486Z,51.69
2023-05-17T23:00:28.454Z,51.46
2023-05-17T23:02:56.573Z,51.61
2023-05-17T23:05:24.790Z,51.44
2023-05-17T23:07:53.463Z,51.64
2023-05-17T23:10:21.607Z,51.73
2023-05-17T23:12:52.433Z,51.92
2023-05-17T23:15:20.816Z,51.63
2023-05-17T23:17:48.892Z,51.56
2023-05-17T23:20:17.095Z,51.83
2023-05-17T23:22:45.076Z,51.92
2023-05-17T23:25:13.029Z,51.58
2023-05-17T23:27:41.022Z,51.57
2023-05-17T23:30:11.313Z,51.77
2023-05-17T23:32:39.528Z,51.80
2023-05-17T23:35:09.030Z,51.76
2023-05-17T23:37:37.471Z,51.57
2023-05-17T23:40:06.774Z,51.89
2023-05-17T23:42:34.755Z,51.60
2023-05-17T23:45:02.870Z,51.82
2023-05-17T23:47:33.632Z,51.55
2023-05-17T23:50:03.026Z,51.65
2023-05-17T23:52:32.582Z,51.76
2023-05-17T23:55:01.666Z,51.72
2023-05-17T23:57:29.766Z,52.07
2023-05-17T23:59:57.713Z,51.89
